Time;durP1;ratioP1;P1;durP2;ratioP2;P2;SDS_P1;SDS_P2;PMS_P1;PMS_P2;Temp;Humidity;BMP_temperature;BMP_pressure;BME280_temperature;BME280_humidity;BME280_pressure;Samples;Min_cycle;Max_cycle;Signal;HPM_P1;HPM_P2
2022/04/20 00:00:55;;;;;;;3.75;2.78;;;5.80;99.90;;;;;;4964056;28;20054;-78
2022/04/20 00:03:23;;;;;;;3.60;2.80;;;5.80;99.90;;;;;;4952953;28;20093;-78
2022/04/20 00:05:51;;;;;;;4.07;2.90;;;5.80;99.90;;;;;;4966714;28;20161;-78
2022/04/20 00:08:18;;;;;;;4.88;2.85;;;5.80;99.90;;;;;;4970415;28;20066;-78
2022/04/20 00:10:46;;;;;;;7.55;2.80;;;5.80;99.90;;;;;;4958631;28;20110;-78
2022/04/20 00:13:13;;;;;;;4.28;2.53;;;5.80;99.90;;;;;;4963366;28;20072;-78
2022/04/20 00:15:41;;;;;;;4.85;3.03;;;5.80;99.90;;;;;;4953613;28;20157;-78
2022/04/20 00:18:08;;;;;;;4.97;2.88;;;5.80;99.90;;;;;;4966031;28;20062;-78
2022/04/20 00:20:37;;;;;;;4.22;2.60;;;5.70;99.90;;;;;;4955467;28;20043;-78
2022/04/20 00:23:05;;;;;;;5.35;2.75;;;5.70;99.90;;;;;;4962158;28;20603;-77
2022/04/20 00:25:33;;;;;;;4.05;2.72;;;5.70;99.90;;;;;;4976147;28;20567;-77
2022/04/20 00:28:01;;;;;;;4.05;3.10;;;5.80;99.90;;;;;;4959766;28;20062;-77
2022/04/20 00:30:28;;;;;;;5.20;3.30;;;5.80;99.90;;;;;;4966513;28;20142;-77
2022/04/20 00:32:56;;;;;;;5.28;3.38;;;5.80;99.90;;;;;;4971998;28;20078;-77
2022/04/20 00:35:23;;;;;;;4.05;3.40;;;5.80;99.90;;;;;;4951393;28;20377;-77
2022/04/20 00:37:52;;;;;;;4.07;3.13;;;5.80;99.90;;;;;;4957660;28;20090;-78
2022/04/20 00:40:20;;;;;;;4.70;3.30;;;5.80;99.90;;;;;;4967780;28;20061;-77
2022/04/20 00:42:48;;;;;;;4.03;2.88;;;5.80;99.90;;;;;;4965985;28;20066;-77
2022/04/20 00:45:16;;;;;;;4.47;2.80;;;5.70;99.90;;;;;;4994734;28;20055;-77
2022/04/20 00:47:44;;;;;;;4.90;2.50;;;5.80;99.90;;;;;;4952841;28;20088;-78
2022/04/20 00:50:15;;;;;;;5.35;3.08;;;5.70;99.90;;;;;;4951581;28;20058;-77
2022/04/20 00:52:43;;;;;;;5.80;2.70;;;5.80;99.90;;;;;;4968026;28;20118;-77
2022/04/20 00:55:14;;;;;;;3.25;2.70;;;5.80;99.90;;;;;;4967668;28;20042;-77
2022/04/20 00:57:42;;;;;;;3.30;2.42;;;5.70;99.90;;;;;;4998737;28;20515;-77
2022/04/20 01:00:13;;;;;;;4.10;3.17;;;5.80;99.90;;;;;;4967768;28;20051;-77
2022/04/20 01:02:47;;;;;;;3.83;2.75;;;5.80;99.90;;;;;;4984158;28;20162;-77
2022/04/20 01:05:16;;;;;;;7.25;3.03;;;5.80;99.90;;;;;;4999984;28;20141;-77
2022/04/20 01:07:44;;;;;;;3.42;2.95;;;5.70;99.90;;;;;;4969223;28;20046;-77
2022/04/20 01:10:26;;;;;;;5.65;3.10;;;5.70;99.90;;;;;;4965579;28;20047;-77
2022/04/20 01:13:10;;;;;;;3.53;2.88;;;5.70;99.90;;;;;;4966440;28;20504;-76
2022/04/20 01:16:08;;;;;;;4.38;2.67;;;5.70;99.90;;;;;;4969983;28;20183;-77
2022/04/20 01:18:55;;;;;;;5.38;2.75;;;5.70;99.90;;;;;;4955112;28;20150;-77
2022/04/20 01:21:39;;;;;;;5.53;2.70;;;5.60;99.90;;;;;;4981848;28;20065;-78
2022/04/20 01:24:33;;;;;;;5.05;3.25;;;5.60;99.90;;;;;;4950001;28;20486;-78
2022/04/20 01:27:13;;;;;;;4.85;2.60;;;5.50;99.90;;;;;;4953616;28;20047;-78
2022/04/20 01:29:55;;;;;;;6.25;3.08;;;5.50;99.90;;;;;;4957708;28;20047;-77
2022/04/20 01:32:38;;;;;;;4.05;2.47;;;5.50;99.90;;;;;;4950465;28;20051;-78
2022/04/20 01:35:11;;;;;;;5.57;3.08;;;5.50;99.90;;;;;;4966327;28;20056;-77
2022/04/20 01:37:41;;;;;;;3.80;2.70;;;5.50;99.90;;;;;;4970060;28;20059;-78
2022/04/20 01:40:10;;;;;;;5.90;3.10;;;5.40;99.90;;;;;;4983494;28;20083;-78
2022/04/20 01:42:38;;;;;;;4.82;3.42;;;5.40;99.90;;;;;;4968378;28;20042;-78
2022/04/20 01:45:10;;;;;;;7.38;3.30;;;5.40;99.90;;;;;;4951736;28;20051;-77
2022/04/20 01:48:00;;;;;;;3.15;2.80;;;5.40;99.90;;;;;;4969964;28;20051;-77
2022/04/20 01:51:46;;;;;;;5.88;2.90;;;5.30;99.90;;;;;;4968398;28;20504;-77
2022/04/20 01:53:41;;;;;;;2.58;2.35;;;5.30;99.90;;;;;;4954820;28;20063;-77
2022/04/20 01:56:28;;;;;;;2.15;1.90;;;5.30;99.90;;;;;;4956043;28;20058;-77
2022/04/20 01:59:11;;;;;;;3.67;2.10;;;5.20;99.90;;;;;;4965221;28;20051;-77
2022/04/20 02:04:43;;;;;;;3.70;2.20;;;5.20;99.90;;;;;;4982149;28;20059;-77
2022/04/20 02:07:11;;;;;;;3.35;2.28;;;5.20;99.90;;;;;;4998434;28;20512;-77
2022/04/20 02:09:45;;;;;;;;;;;5.20;99.90;;;;;;4956507;28;20508;-77
2022/04/20 02:12:18;;;;;;;2.67;2.13;;;5.20;99.90;;;;;;4967016;28;19948;-77
2022/04/20 02:15:14;;;;;;;5.75;1.90;;;5.10;99.90;;;;;;4962948;28;20486;-77
2022/04/20 02:18:18;;;;;;;3.25;2.15;;;5.10;99.90;;;;;;4970649;28;20423;-77
2022/04/20 02:20:57;;;;;;;2.38;2.10;;;5.00;99.90;;;;;;4967242;28;20142;-77
2022/04/20 02:23:26;;;;;;;2.50;2.30;;;5.00;99.90;;;;;;4972068;28;20141;-76
2022/04/20 02:25:56;;;;;;;4.82;2.20;;;5.00;99.90;;;;;;4969413;28;20154;-76
2022/04/20 02:28:23;;;;;;;3.60;2.67;;;5.00;99.90;;;;;;4963660;28;20043;-78
2022/04/20 02:30:51;;;;;;;2.83;2.20;;;4.90;99.90;;;;;;4986069;28;20102;-78
2022/04/20 02:33:18;;;;;;;4.45;2.20;;;4.90;99.90;;;;;;4965079;28;20061;-78
2022/04/20 02:35:47;;;;;;;5.30;2.38;;;4.90;99.90;;;;;;4971697;28;20058;-79
2022/04/20 02:38:17;;;;;;;3.97;2.63;;;4.90;99.90;;;;;;4978273;28;20069;-78
2022/04/20 02:40:45;;;;;;;4.88;2.22;;;4.90;99.90;;;;;;4993924;28;20046;-79
2022/04/20 02:43:14;;;;;;;4.35;2.35;;;4.90;99.90;;;;;;4973787;28;20519;-79
2022/04/20 02:45:41;;;;;;;3.65;2.20;;;4.90;99.90;;;;;;4954461;28;20055;-79
2022/04/20 02:48:10;;;;;;;5.10;2.03;;;4.90;99.90;;;;;;4967730;28;20086;-78
2022/04/20 02:50:38;;;;;;;2.45;2.25;;;4.90;99.90;;;;;;5003365;28;20519;-78
2022/04/20 02:53:06;;;;;;;5.53;2.65;;;5.00;99.90;;;;;;4953981;28;20147;-78
2022/04/20 02:55:38;;;;;;;15.50;7.38;;;5.00;99.90;;;;;;4966020;28;20109;-78
2022/04/20 02:58:07;;;;;;;19.98;7.07;;;4.90;99.90;;;;;;5001992;28;20546;-78
2022/04/20 03:00:37;;;;;;;14.75;5.07;;;4.90;99.90;;;;;;4970671;28;20129;-78
2022/04/20 03:03:25;;;;;;;3.55;2.08;;;4.90;99.90;;;;;;4991869;28;20050;-78
2022/04/20 03:05:56;;;;;;;7.88;4.68;;;4.90;99.90;;;;;;4970872;28;20065;-79
2022/04/20 03:08:25;;;;;;;14.93;7.25;;;4.90;99.90;;;;;;4987722;28;20090;-79
2022/04/20 03:10:54;;;;;;;17.48;4.72;;;4.80;99.90;;;;;;4966576;28;20546;-80
2022/04/20 03:13:23;;;;;;;10.70;3.90;;;4.90;99.90;;;;;;4958797;28;20062;-80
2022/04/20 03:15:53;;;;;;;2.95;2.33;;;4.80;99.90;;;;;;4970877;28;20051;-79
2022/04/20 03:18:21;;;;;;;2.33;2.13;;;4.80;99.90;;;;;;4990862;28;20050;-79
2022/04/20 03:20:51;;;;;;;5.80;2.35;;;4.80;99.90;;;;;;4966952;28;20466;-78
2022/04/20 03:23:20;;;;;;;6.53;2.35;;;4.80;99.90;;;;;;4972249;28;20500;-78
2022/04/20 03:25:52;;;;;;;4.53;2.53;;;4.80;99.90;;;;;;4985237;28;20524;-78
2022/04/20 03:28:48;;;;;;;4.03;2.90;;;4.70;99.90;;;;;;4966372;28;20047;-79
2022/04/20 03:31:18;;;;;;;3.42;2.58;;;4.80;99.90;;;;;;4936901;29;20047;-79
2022/04/20 03:33:46;;;;;;;8.75;3.63;;;4.80;99.90;;;;;;4941897;29;20059;-80
2022/04/20 03:36:13;;;;;;;7.50;3.42;;;4.80;99.90;;;;;;4984677;28;20322;-79
2022/04/20 03:38:41;;;;;;;3.55;2.40;;;4.80;99.90;;;;;;4972550;28;20607;-80
2022/04/20 03:41:09;;;;;;;5.30;3.03;;;4.80;99.90;;;;;;4953698;28;20043;-80
2022/04/20 03:43:36;;;;;;;8.20;3.10;;;4.80;99.90;;;;;;4970505;28;20134;-80
2022/04/20 03:46:05;;;;;;;6.05;2.50;;;4.90;99.90;;;;;;4973275;28;20106;-79
2022/04/20 03:48:36;;;;;;;26.60;3.50;;;4.90;99.90;;;;;;4968261;28;20109;-78
2022/04/20 03:51:03;;;;;;;7.60;2.70;;;5.00;99.90;;;;;;4960883;28;20051;-79
2022/04/20 03:53:32;;;;;;;11.57;2.70;;;5.00;99.90;;;;;;4986216;28;20051;-79
2022/04/20 03:56:01;;;;;;;10.52;2.83;;;5.00;99.90;;;;;;4972510;28;20495;-79
2022/04/20 03:58:29;;;;;;;4.75;2.50;;;5.00;99.90;;;;;;4967145;28;20508;-77
2022/04/20 04:00:57;;;;;;;5.55;2.50;;;5.10;99.90;;;;;;4965581;28;20059;-77
2022/04/20 04:03:24;;;;;;;4.20;2.70;;;5.10;99.90;;;;;;4952750;28;20059;-77
2022/04/20 04:05:56;;;;;;;15.82;3.10;;;5.10;99.90;;;;;;4983397;28;20055;-78
2022/04/20 04:08:26;;;;;;;6.80;3.20;;;5.10;99.90;;;;;;4956191;28;20061;-77
2022/04/20 04:10:54;;;;;;;19.15;2.97;;;5.20;99.90;;;;;;4970839;28;20133;-77
2022/04/20 04:13:22;;;;;;;8.07;3.30;;;5.20;99.90;;;;;;4967222;28;20500;-78
2022/04/20 04:15:55;;;;;;;6.78;2.70;;;5.30;99.90;;;;;;4949204;28;20055;-77
2022/04/20 04:18:25;;;;;;;7.18;2.83;;;5.40;99.90;;;;;;4993699;28;20835;-79
2022/04/20 04:20:55;;;;;;;6.68;2.47;;;5.40;99.90;;;;;;4951906;28;20053;-78
2022/04/20 04:23:23;;;;;;;6.95;2.60;;;5.50;99.90;;;;;;4969851;28;20047;-84
2022/04/20 04:26:02;;;;;;;7.65;2.50;;;5.60;99.90;;;;;;4965889;28;20062;-86
2022/04/20 04:28:45;;;;;;;9.02;2.53;;;5.60;99.90;;;;;;4984091;28;20050;-78
2022/04/20 04:31:15;;;;;;;7.13;2.67;;;5.70;99.90;;;;;;4993455;28;20047;-78
2022/04/20 04:33:42;;;;;;;9.38;3.42;;;5.70;99.90;;;;;;4956610;28;20089;-77
2022/04/20 04:36:15;;;;;;;6.88;2.95;;;5.80;99.90;;;;;;4984503;28;20143;-77
2022/04/20 04:38:52;;;;;;;8.48;2.65;;;5.90;99.90;;;;;;4952803;28;20061;-79
2022/04/20 04:41:25;;;;;;;4.35;3.00;;;5.90;99.90;;;;;;4987019;28;20161;-80
2022/04/20 04:43:53;;;;;;;15.10;3.40;;;6.00;99.90;;;;;;4964352;28;20051;-79
2022/04/20 04:49:40;;;;;;;10.25;2.40;;;6.20;99.90;;;;;;4959278;28;20059;-80
2022/04/20 04:52:12;;;;;;;6.60;2.67;;;6.20;99.90;;;;;;4965826;28;20514;-80
2022/04/20 04:54:44;;;;;;;;;;;6.30;99.90;;;;;;4998269;28;20168;-80
2022/04/20 04:57:14;;;;;;;8.57;2.50;;;6.30;99.90;;;;;;4989014;28;20023;-81
2022/04/20 04:59:44;;;;;;;13.40;5.53;;;6.50;99.90;;;;;;5006420;28;20054;-81
2022/04/20 05:02:14;;;;;;;5.90;2.90;;;6.50;99.90;;;;;;4993045;28;20050;-80
2022/04/20 05:04:42;;;;;;;5.15;2.08;;;6.60;99.90;;;;;;4993775;28;20051;-79
2022/04/20 05:07:12;;;;;;;5.00;2.50;;;6.60;99.90;;;;;;4966562;28;20039;-78
2022/04/20 05:10:00;;;;;;;7.03;2.72;;;6.70;99.90;;;;;;4964266;28;20050;-86
2022/04/20 05:12:28;;;;;;;9.63;2.40;;;6.80;99.90;;;;;;4949383;28;20063;-82
2022/04/20 05:14:58;;;;;;;7.38;1.83;;;6.90;99.90;;;;;;4949463;29;20059;-84
2022/04/20 05:17:27;;;;;;;15.65;2.95;;;7.00;99.90;;;;;;4983177;28;20051;-84
2022/04/20 05:19:55;;;;;;;21.52;2.40;;;7.10;99.90;;;;;;4969966;28;20099;-81
2022/04/20 05:22:26;;;;;;;13.25;2.60;;;7.20;99.90;;;;;;4963817;28;20047;-83
2022/04/20 05:24:55;;;;;;;13.40;2.67;;;7.30;99.90;;;;;;4965881;28;20420;-82
2022/04/20 05:27:22;;;;;;;16.40;2.92;;;7.50;99.90;;;;;;4951058;28;20082;-79
2022/04/20 05:30:25;;;;;;;32.92;3.85;;;7.80;99.90;;;;;;4962511;28;20057;-79
2022/04/20 05:32:54;;;;;;;28.65;2.63;;;8.60;99.90;;;;;;4980141;28;20061;-75
2022/04/20 05:35:25;;;;;;;12.55;2.38;;;9.20;99.90;;;;;;4980941;28;20065;-75
2022/04/20 05:43:35;;;;;;;3.88;2.10;;;11.40;99.90;;;;;;4947608;28;20047;-75
2022/04/20 05:46:03;;;;;;;12.88;2.67;;;12.10;99.90;;;;;;4948938;28;20142;-76
2022/04/20 05:48:37;;;;;;;9.63;2.47;;;12.60;99.90;;;;;;4957253;28;20098;-76
2022/04/20 05:51:08;;;;;;;8.55;2.20;;;13.00;94.70;;;;;;4977092;28;20074;-76
2022/04/20 05:53:43;;;;;;;9.35;2.60;;;13.40;90.40;;;;;;4978343;28;20397;-76
2022/04/20 05:56:11;;;;;;;16.00;3.47;;;13.70;89.00;;;;;;4950343;28;20113;-76
2022/04/20 05:58:50;;;;;;;13.40;2.50;;;13.90;88.20;;;;;;4965582;28;20449;-75
2022/04/20 06:01:22;;;;;;;8.70;2.30;;;14.30;79.10;;;;;;4972577;28;20051;-76
2022/04/20 06:04:10;;;;;;;5.97;1.90;;;14.50;79.50;;;;;;5006377;28;20051;-78
2022/04/20 06:06:44;;;;;;;10.02;2.17;;;14.90;74.20;;;;;;4964175;28;20051;-76
2022/04/20 06:09:17;;;;;;;12.50;2.22;;;15.30;72.80;;;;;;4965298;28;20092;-76
2022/04/20 06:11:57;;;;;;;31.77;3.88;;;15.60;71.30;;;;;;4972119;28;20051;-75
2022/04/20 06:14:33;;;;;;;17.00;3.42;;;15.90;68.70;;;;;;4986007;28;20050;-76
2022/04/20 06:17:13;;;;;;;9.98;2.85;;;16.30;65.80;;;;;;4987169;28;20054;-77
2022/04/20 06:19:47;;;;;;;11.18;2.45;;;16.70;64.10;;;;;;4983948;28;20058;-77
2022/04/20 06:22:40;;;;;;;12.32;2.80;;;17.10;60.90;;;;;;4999958;28;20228;-75
2022/04/20 06:25:29;;;;;;;8.40;2.53;;;17.10;61.20;;;;;;4969472;28;20065;-77
2022/04/20 06:28:21;;;;;;;9.13;2.97;;;17.20;60.30;;;;;;4973025;28;20059;-77
2022/04/20 06:31:17;;;;;;;13.40;2.83;;;17.50;59.60;;;;;;4982669;28;20046;-76
2022/04/20 06:34:05;;;;;;;17.45;3.58;;;17.80;58.30;;;;;;4996280;28;20129;-77
2022/04/20 06:36:42;;;;;;;4.30;2.25;;;18.10;56.80;;;;;;4998661;28;20410;-76
2022/04/20 06:39:29;;;;;;;9.93;2.72;;;18.20;56.90;;;;;;4976658;28;20057;-76
2022/04/20 06:42:33;;;;;;;10.57;1.88;;;18.40;56.00;;;;;;4971845;28;20420;-76
2022/04/20 06:45:19;;;;;;;6.60;1.73;;;18.50;55.40;;;;;;4982836;28;20050;-74
2022/04/20 06:48:09;;;;;;;8.50;2.10;;;18.70;54.80;;;;;;4968191;28;20054;-76
2022/04/20 06:50:54;;;;;;;9.65;2.30;;;18.70;54.60;;;;;;4973050;28;20059;-76
2022/04/20 06:59:13;;;;;;;7.07;2.05;;;19.20;52.70;;;;;;4952266;29;20051;-77
2022/04/20 07:02:02;;;;;;;8.40;2.30;;;19.40;53.10;;;;;;4964570;28;20050;-73
2022/04/20 07:04:53;;;;;;;5.82;1.70;;;19.70;51.90;;;;;;4970264;28;20046;-72
2022/04/20 07:07:43;;;;;;;6.30;1.95;;;19.80;51.10;;;;;;4956245;28;20428;-73
2022/04/20 07:10:21;;;;;;;3.83;1.30;;;20.10;50.90;;;;;;4990728;28;20086;-71
2022/04/20 07:12:59;;;;;;;1.73;1.55;;;20.30;49.30;;;;;;5002789;28;20043;-72
2022/04/20 07:15:28;;;;;;;5.22;1.60;;;20.50;49.20;;;;;;4964982;28;20055;-72
2022/04/20 07:17:56;;;;;;;6.90;1.30;;;20.70;48.60;;;;;;4969654;28;20039;-72
2022/04/20 07:20:46;;;;;;;4.05;1.20;;;21.00;47.80;;;;;;4969733;28;20078;-71
2022/04/20 07:23:27;;;;;;;10.70;1.67;;;21.30;47.50;;;;;;4984787;28;20065;-72
2022/04/20 07:26:00;;;;;;;10.15;1.98;;;21.60;48.10;;;;;;4969327;28;20091;-79
2022/04/20 07:28:45;;;;;;;10.25;1.70;;;21.90;46.70;;;;;;4993948;28;20042;-81
2022/04/20 07:31:31;;;;;;;15.45;1.70;;;22.30;46.00;;;;;;4969983;28;20130;-79
2022/04/20 07:34:38;;;;;;;11.73;1.55;;;22.70;45.50;;;;;;4950089;29;20055;-81
2022/04/20 07:37:16;;;;;;;4.15;1.05;;;22.80;44.10;;;;;;4924663;28;20105;-79
2022/04/20 07:40:12;;;;;;;5.93;1.45;;;23.00;44.00;;;;;;4960432;28;20134;-80
2022/04/20 07:42:58;;;;;;;7.65;1.50;;;23.10;43.70;;;;;;4951355;29;20046;-79
2022/04/20 07:45:52;;;;;;;4.93;1.30;;;23.60;43.60;;;;;;4968661;28;20051;-78
2022/04/20 07:48:50;;;;;;;11.38;1.77;;;23.90;42.50;;;;;;4972478;28;20054;-81
2022/04/20 07:51:29;;;;;;;8.13;1.58;;;24.00;42.60;;;;;;4964218;28;20515;-80
2022/04/20 07:54:10;;;;;;;7.07;1.55;;;24.20;43.00;;;;;;4963957;28;20057;-79
2022/04/20 07:57:03;;;;;;;4.22;1.55;;;24.40;42.40;;;;;;4959169;28;20043;-80
2022/04/20 07:59:50;;;;;;;10.70;1.48;;;24.80;41.70;;;;;;4968499;28;20468;-79
2022/04/20 08:02:36;;;;;;;4.90;1.17;;;25.00;40.30;;;;;;4972282;28;20047;-78
2022/04/20 08:05:16;;;;;;;6.38;1.15;;;25.10;39.40;;;;;;4981186;28;20047;-78
2022/04/20 08:07:46;;;;;;;9.18;1.33;;;24.70;39.20;;;;;;4960873;28;20519;-78
2022/04/20 08:10:17;;;;;;;2.83;1.00;;;24.70;39.60;;;;;;4966186;28;20137;-79
2022/04/20 08:12:46;;;;;;;5.35;1.20;;;24.90;38.80;;;;;;4976344;28;20499;-78
2022/04/20 08:15:23;;;;;;;4.85;1.00;;;24.60;39.30;;;;;;4975163;28;20465;-79
2022/04/20 08:17:52;;;;;;;3.92;1.55;;;24.70;40.30;;;;;;4985957;28;20038;-80
2022/04/20 08:20:47;;;;;;;2.60;1.15;;;24.90;38.40;;;;;;4976008;28;20479;-79
2022/04/20 08:23:16;;;;;;;11.80;2.67;;;24.80;38.10;;;;;;4979767;28;20054;-78
2022/04/20 08:25:43;;;;;;;2.65;0.90;;;24.50;38.10;;;;;;4986390;28;20034;-78
2022/04/20 08:28:12;;;;;;;1.30;1.05;;;24.80;38.20;;;;;;4987801;28;20077;-79
2022/04/20 08:30:41;;;;;;;2.67;0.90;;;25.10;38.00;;;;;;4989942;28;20097;-78
2022/04/20 08:33:09;;;;;;;5.30;1.02;;;25.60;37.80;;;;;;4978345;28;20125;-79
2022/04/20 08:35:37;;;;;;;8.07;1.35;;;25.80;38.10;;;;;;5003836;28;20133;-78
2022/04/20 08:38:06;;;;;;;3.17;0.73;;;26.10;37.50;;;;;;4988518;28;20059;-77
2022/04/20 08:40:35;;;;;;;8.55;1.27;;;25.90;37.10;;;;;;4987514;28;20049;-78
2022/04/20 08:43:05;;;;;;;4.93;1.20;;;26.00;37.90;;;;;;4965301;28;20078;-76
2022/04/20 08:45:37;;;;;;;9.15;1.27;;;26.00;37.00;;;;;;4974125;28;20074;-77
2022/04/20 08:48:06;;;;;;;1.13;0.88;;;26.20;38.90;;;;;;4956251;28;20051;-80
2022/04/20 08:50:34;;;;;;;6.00;1.10;;;26.70;36.80;;;;;;4952263;28;20051;-75
2022/04/20 08:53:05;;;;;;;3.55;0.65;;;26.90;36.30;;;;;;4965764;28;20074;-76
2022/04/20 08:55:37;;;;;;;3.45;0.80;;;27.10;36.30;;;;;;4972489;28;20059;-77
2022/04/20 08:58:05;;;;;;;4.75;0.90;;;27.50;36.30;;;;;;4950510;29;20044;-77
2022/04/20 09:00:34;;;;;;;3.15;0.65;;;27.70;36.50;;;;;;4967548;28;20051;-77
2022/04/20 09:03:04;;;;;;;5.35;0.80;;;27.80;35.20;;;;;;4967869;28;20510;-77
2022/04/20 09:05:34;;;;;;;6.15;2.75;;;27.60;35.10;;;;;;4967661;28;20078;-77
2022/04/20 09:08:13;;;;;;;6.00;1.15;;;27.10;35.50;;;;;;4971454;28;20573;-79
2022/04/20 09:10:41;;;;;;;2.95;0.65;;;27.30;35.70;;;;;;4961564;28;20087;-79
2022/04/20 09:13:10;;;;;;;6.28;0.85;;;27.80;35.80;;;;;;4969628;28;20050;-78
2022/04/20 09:15:43;;;;;;;8.00;1.05;;;28.20;35.10;;;;;;4969725;28;20138;-78
2022/04/20 09:18:11;;;;;;;14.07;1.10;;;28.40;35.30;;;;;;4986058;28;20046;-78
2022/04/20 09:20:41;;;;;;;5.22;1.38;;;28.60;34.50;;;;;;4967683;28;20055;-79
2022/04/20 09:23:12;;;;;;;8.52;1.02;;;28.60;34.40;;;;;;4970483;28;20141;-78
2022/04/20 09:25:48;;;;;;;4.45;1.27;;;28.50;34.10;;;;;;4969899;28;20101;-82
2022/04/20 09:28:16;;;;;;;10.13;1.38;;;28.20;34.50;;;;;;4960980;28;20416;-79
2022/04/20 09:30:49;;;;;;;5.07;1.05;;;27.80;35.20;;;;;;4969405;28;20074;-78
2022/04/20 09:33:17;;;;;;;6.07;1.17;;;27.90;36.20;;;;;;4968736;28;20051;-78
2022/04/20 09:35:50;;;;;;;2.72;0.98;;;28.10;35.50;;;;;;4970348;28;20515;-78
2022/04/20 09:38:23;;;;;;;4.72;1.40;;;28.40;35.40;;;;;;4967267;28;20039;-78
2022/04/20 09:41:08;;;;;;;3.97;1.58;;;28.80;35.40;;;;;;4970086;28;20061;-79
2022/04/20 09:43:36;;;;;;;6.55;1.10;;;29.10;34.30;;;;;;4969412;28;20137;-79
2022/04/20 09:48:50;;;;;;;8.38;1.23;;;29.20;34.40;;;;;;4963909;28;20150;-77
2022/04/20 09:49:05;;;;;;;23.27;1.65;;;28.90;34.60;;;;;;4957750;28;20428;-77
2022/04/20 09:51:37;;;;;;;6.18;1.15;;;28.40;36.00;;;;;;4963438;28;20078;-79
2022/04/20 09:54:24;;;;;;;8.50;1.40;;;28.70;35.40;;;;;;4972574;28;20476;-79
2022/04/20 09:57:09;;;;;;;12.57;1.10;;;29.10;35.00;;;;;;4965630;28;20058;-79
2022/04/20 09:59:37;;;;;;;19.52;1.85;;;29.40;34.30;;;;;;4970741;28;20078;-78
2022/04/20 10:02:11;;;;;;;16.50;1.65;;;29.60;35.00;;;;;;4969732;28;20055;-78
2022/04/20 10:04:43;;;;;;;4.80;0.95;;;29.80;34.60;;;;;;4969576;28;20154;-77
2022/04/20 10:07:13;;;;;;;14.17;1.17;;;29.90;34.30;;;;;;4959216;28;20059;-77
2022/04/20 10:09:43;;;;;;;3.58;0.95;;;30.10;35.20;;;;;;4960266;28;20394;-78
2022/04/20 10:12:13;;;;;;;6.72;1.20;;;30.30;34.80;;;;;;4957219;28;20057;-77
2022/04/20 10:17:31;;;;;;;41.33;2.45;;;30.30;33.80;;;;;;4968659;28;20042;-77
2022/04/20 10:20:02;;;;;;;5.57;1.40;;;30.00;34.50;;;;;;4969843;28;20062;-78
2022/04/20 10:22:37;;;;;;;2.42;1.00;;;30.30;34.50;;;;;;4970855;28;20050;-76
2022/04/20 10:25:07;;;;;;;17.55;1.80;;;30.40;34.50;;;;;;4961822;28;20077;-77
2022/04/20 10:27:46;;;;;;;15.88;1.42;;;30.60;35.10;;;;;;4969743;28;20055;-77
2022/04/20 10:30:19;;;;;;;5.43;1.15;;;30.80;34.10;;;;;;4970006;28;20050;-78
2022/04/20 10:32:53;;;;;;;3.63;1.10;;;31.10;33.20;;;;;;4967069;28;20055;-78
2022/04/20 10:35:25;;;;;;;7.88;1.40;;;30.80;33.20;;;;;;4965940;28;20078;-77
2022/04/20 10:38:13;;;;;;;7.80;1.95;;;30.70;34.00;;;;;;4950917;28;20062;-76
2022/04/20 10:41:07;;;;;;;6.43;1.27;;;30.70;33.00;;;;;;4959156;28;20058;-76
2022/04/20 10:43:39;;;;;;;4.25;1.15;;;30.50;33.30;;;;;;4972207;28;20042;-76
2022/04/20 10:46:15;;;;;;;3.95;1.00;;;30.30;34.10;;;;;;4971845;28;20049;-75
2022/04/20 10:49:02;;;;;;;9.95;1.02;;;30.10;33.50;;;;;;4972711;28;20050;-76
2022/04/20 10:51:42;;;;;;;8.25;0.90;;;29.70;34.10;;;;;;4969765;28;20057;-75
2022/04/20 10:54:29;;;;;;;7.88;2.08;;;29.40;33.90;;;;;;4979717;28;20058;-78
2022/04/20 10:57:14;;;;;;;7.03;0.85;;;29.10;33.90;;;;;;4967433;28;20074;-77
2022/04/20 10:59:42;;;;;;;8.68;1.05;;;28.70;35.90;;;;;;4954818;28;20066;-76
2022/04/20 11:02:15;;;;;;;8.70;1.45;;;28.60;34.30;;;;;;4960178;28;20047;-77
2022/04/20 11:04:50;;;;;;;8.70;1.10;;;28.20;35.40;;;;;;4962386;28;20146;-79
2022/04/20 11:07:22;;;;;;;10.05;1.40;;;28.30;34.90;;;;;;4957228;28;20050;-78
2022/04/20 11:10:10;;;;;;;9.02;1.45;;;28.40;35.10;;;;;;4953770;28;20158;-78
2022/04/20 11:19:05;;;;;;;4.95;1.00;;;30.20;33.40;;;;;;4975655;28;20535;-79
2022/04/20 11:21:56;;;;;;;15.85;1.33;;;30.70;32.90;;;;;;4985849;28;20050;-77
2022/04/20 11:24:28;;;;;;;5.22;1.10;;;30.50;33.20;;;;;;4959037;28;20105;-76
2022/04/20 11:26:58;;;;;;;8.10;1.35;;;30.60;33.30;;;;;;4964687;28;20700;-79
2022/04/20 11:29:29;;;;;;;8.23;1.10;;;30.60;33.00;;;;;;4965703;28;20035;-76
2022/04/20 11:32:02;;;;;;;5.00;1.20;;;30.90;32.70;;;;;;4969695;28;20595;-76
2022/04/20 11:35:07;;;;;;;8.68;1.50;;;30.70;32.60;;;;;;4953645;28;20062;-76
2022/04/20 11:37:39;;;;;;;3.78;1.35;;;30.80;33.10;;;;;;4971541;28;20043;-76
2022/04/20 11:40:12;;;;;;;5.88;1.50;;;31.00;33.70;;;;;;4969019;28;20051;-76
2022/04/20 11:42:40;;;;;;;6.82;1.30;;;31.00;33.70;;;;;;4985929;28;20051;-77
2022/04/20 11:45:11;;;;;;;6.35;1.48;;;31.50;33.30;;;;;;4971020;28;20090;-77
2022/04/20 11:47:40;;;;;;;;;;;31.80;32.90;;;;;;4961726;28;20193;-77
2022/04/20 11:50:09;;;;;;;3.90;1.05;;;31.80;33.50;;;;;;4968891;28;20306;-76
2022/04/20 11:52:58;;;;;;;6.30;1.88;;;31.70;32.60;;;;;;4968474;28;20105;-77
2022/04/20 11:55:55;;;;;;;3.55;1.50;;;31.10;33.20;;;;;;4962783;28;20054;-77
2022/04/20 11:58:23;;;;;;;5.40;1.15;;;31.10;33.20;;;;;;4958054;28;20133;-76
2022/04/20 12:01:01;;;;;;;4.43;1.20;;;31.30;33.60;;;;;;4970079;28;20046;-75
2022/04/20 12:03:33;;;;;;;4.85;1.55;;;31.50;33.20;;;;;;4980982;28;20049;-74
2022/04/20 12:06:03;;;;;;;2.38;1.15;;;31.50;33.10;;;;;;4981672;28;20106;-75
2022/04/20 12:08:32;;;;;;;3.97;1.45;;;31.80;33.20;;;;;;4963956;28;20515;-75
2022/04/20 12:11:03;;;;;;;9.18;1.20;;;32.00;33.20;;;;;;4958652;28;20051;-76
2022/04/20 12:13:31;;;;;;;2.95;1.50;;;32.30;33.20;;;;;;4952087;29;20516;-76
2022/04/20 12:16:09;;;;;;;2.05;1.73;;;32.30;32.90;;;;;;4957865;28;20511;-76
2022/04/20 12:18:43;;;;;;;4.32;1.67;;;32.30;33.20;;;;;;4972146;28;20679;-77
2022/04/20 12:21:40;;;;;;;7.00;1.83;;;32.40;32.90;;;;;;4966541;28;20169;-77
2022/04/20 12:24:10;;;;;;;11.45;1.67;;;32.40;32.70;;;;;;4980487;28;20117;-76
2022/04/20 12:26:47;;;;;;;6.70;1.70;;;32.50;32.90;;;;;;4989353;28;20081;-78
2022/04/20 12:29:18;;;;;;;5.85;1.80;;;32.60;32.50;;;;;;4987393;28;20050;-77
2022/04/20 12:31:51;;;;;;;177.80;9.07;;;32.60;32.70;;;;;;4970708;28;20101;-77
2022/04/20 12:34:19;;;;;;;;;;;32.30;32.70;;;;;;4975899;28;20310;-77
2022/04/20 12:36:59;;;;;;;11.55;1.92;;;31.60;32.90;;;;;;4973693;28;20398;-75
2022/04/20 12:39:35;;;;;;;3.50;1.63;;;31.40;33.70;;;;;;4981183;28;20069;-80
2022/04/20 12:42:07;;;;;;;11.68;1.58;;;31.30;33.60;;;;;;4978593;28;20046;-76
2022/04/20 12:44:52;;;;;;;7.93;1.85;;;31.70;33.70;;;;;;4945621;28;20118;-80
2022/04/20 12:47:34;;;;;;;8.45;2.03;;;31.80;32.80;;;;;;4959571;28;20087;-76
2022/04/20 12:50:24;;;;;;;10.50;1.88;;;32.00;32.50;;;;;;4978166;28;20145;-77
2022/04/20 12:53:01;;;;;;;8.95;2.13;;;32.20;32.90;;;;;;4976317;28;20046;-77
2022/04/20 13:04:16;;;;;;;4.20;1.63;;;32.20;32.40;;;;;;4970170;28;20065;-78
2022/04/20 13:06:44;;;;;;;3.78;2.00;;;31.80;32.20;;;;;;4947311;28;20070;-78
2022/04/20 13:09:11;;;;;;;7.63;1.63;;;31.60;32.90;;;;;;4957820;28;20058;-76
2022/04/20 13:11:39;;;;;;;4.57;1.70;;;31.60;32.90;;;;;;4953430;28;20130;-76
2022/04/20 13:14:10;;;;;;;4.75;1.80;;;31.90;33.00;;;;;;4974157;28;20074;-76
2022/04/20 13:16:37;;;;;;;11.77;2.08;;;31.80;32.60;;;;;;4976941;28;20133;-75
2022/04/20 13:19:05;;;;;;;6.43;1.67;;;31.80;32.50;;;;;;4964074;28;20051;-76
2022/04/20 13:21:34;;;;;;;4.57;1.85;;;31.60;32.60;;;;;;4957401;28;20059;-76
2022/04/20 13:24:02;;;;;;;19.08;2.50;;;31.50;33.10;;;;;;4969449;28;20105;-76
2022/04/20 13:29:16;;;;;;;5.45;1.80;;;30.80;33.40;;;;;;4952789;28;20047;-76
2022/04/20 13:31:45;;;;;;;7.45;3.20;;;30.60;33.70;;;;;;4969036;28;20726;-78
2022/04/20 13:34:12;;;;;;;8.68;1.95;;;30.60;33.30;;;;;;4958498;28;20562;-78
2022/04/20 13:36:41;;;;;;;7.88;2.10;;;30.80;33.70;;;;;;4954745;28;20047;-77
2022/04/20 13:39:09;;;;;;;6.20;1.60;;;31.00;33.20;;;;;;4954332;28;20043;-77
2022/04/20 13:41:37;;;;;;;8.27;1.70;;;31.30;33.10;;;;;;4965027;28;20134;-78
2022/04/20 13:44:05;;;;;;;2.72;1.30;;;31.10;33.20;;;;;;4959240;28;20554;-80
2022/04/20 13:46:33;;;;;;;6.60;1.88;;;30.80;33.40;;;;;;4952399;28;20063;-78
2022/04/20 13:49:02;;;;;;;7.75;1.83;;;30.80;34.00;;;;;;4972558;28;20466;-77
2022/04/20 13:51:30;;;;;;;5.75;2.22;;;31.00;33.30;;;;;;4971801;28;20055;-78
2022/04/20 13:53:59;;;;;;;14.15;2.10;;;30.90;33.40;;;;;;4952782;28;20133;-79
2022/04/20 13:56:26;;;;;;;7.00;1.75;;;30.70;33.70;;;;;;4979465;28;20042;-82
2022/04/20 13:58:54;;;;;;;7.10;1.70;;;30.70;33.60;;;;;;4982488;28;20400;-81
2022/04/20 14:01:21;;;;;;;4.75;1.60;;;30.70;33.50;;;;;;4974221;28;20117;-81
2022/04/20 14:03:49;;;;;;;9.27;1.63;;;30.60;33.50;;;;;;4955754;28;20083;-84
2022/04/20 14:06:17;;;;;;;5.60;1.92;;;30.60;33.90;;;;;;4974824;28;20051;-86